Shepardsville, Indiana
Current Conditions -  °F | °C
As of 10:20 PM on Monday 26 Jan 2015 (Local Time) from KHUF Reporting Station
Light Snow Light Snow  
Wind Chill: 27°   Ceiling: 400
Heat Index: 27°   Visibility: 2.5mi
Dew Point: 26°   Wind: 3mph
Humidity: 96%   Direction: 160°SSE
Pressure: 29.93"   Gusts: NA
Location:  39.6°N, 87.42°W
Report Text: KHUF 270320Z 16003KT 2 1/2SM -SN BR BKN004 OVC018 M03/M03 A2993 RMK AO2 P0000 T10281033
Loading
Personal Weather Stations






























Interactive Weather Map New forecast layout! Learn more

10-Day Weather Forecast

Advertisements
Track Severe Weather on mobile